Historique des mesures à Cassis (13260), France
Quotidien Résumé Mars 3, 2018 Unités:  US    Métrique   Métrique/US
« Précédent (Jour)
Suivant (Jour) »
Quotidien Hebdomadaire Mensuel Annuel Période au choix
  Maximum: Minimum: Moyenne:
Température: 32 °F 49.8 °F 54.1 °F
Point de rosée: 32 °F 38.5 °F 45.5 °F
Humidité: Humidity % 54 % 70 %
Vitesse du vent: WindSpeedKMH mph 0.0 mph 6.6 mph
Rafales: WindSpeedGustKMH mph - -
Vent:- - SW
Pression: 0 in 29.1 in -
Précipitations: 50.8 in    
Historical Graphs
 
 
Mesures pour : Mars 3, 2018
Heure Temperature Point de rosée Pression Vent Vitesse du vent Rafales Humidité Pluie (par heure) Conditions
32 °F 32 °F 0 in Calm     Humidity % 0 in SoftwareType W/m2
00:12 49.8 °F 38.5 °F 29.4 in ESE 4.7 mph 5.5 mph 65 % 0 in open2300-1.11 W/m2
01:12 51.1 °F 41.4 °F 29.3 in ESE 6.8 mph 7.2 mph 69 % 0 in open2300-1.11 W/m2
02:12 49.8 °F 44.2 °F 29.3 in SSE 6.1 mph 6.1 mph 81 % 12.7 in open2300-1.11 W/m2
03:12 50.5 °F 45.9 °F 29.3 in Calm   1.4 mph 84 % 12.7 in open2300-1.11 W/m2
04:12 51.3 °F 47.1 °F 29.2 in SSE 4.0 mph 4.7 mph 86 % 25.4 in open2300-1.11 W/m2
05:12 52.3 °F 48.6 °F 29.2 in SE 2.6 mph 5.8 mph 87 % 0 in open2300-1.11 W/m2
06:12 54.3 °F 50.7 °F 29.2 in West 2.1 mph 10.1 mph 88 % 0 in open2300-1.11 W/m2
07:12 54.5 °F 51.3 °F 29.1 in South 2.1 mph 3.2 mph 89 % 0 in open2300-1.11 W/m2
08:12 54.3 °F 50.7 °F 29.2 in SSW 4.0 mph 4.0 mph 88 % 0 in open2300-1.11 W/m2
09:12 55.9 °F 51.8 °F 29.2 in Calm     86 % 0 in open2300-1.11 W/m2
10:12 56.8 °F 51.6 °F 29.2 in WNW 7.6 mph 7.6 mph 83 % 0 in open2300-1.11 W/m2
11:12 59.2 °F 47.5 °F 29.3 in West 16.9 mph 30.2 mph 65 % 0 in open2300-1.11 W/m2
12:12 59.4 °F 46.2 °F 29.3 in WNW 9.7 mph 20.1 mph 62 % 0 in open2300-1.11 W/m2
13:12 57.9 °F 46.2 °F 29.3 in WNW 20.9 mph 21.6 mph 65 % 0 in open2300-1.11 W/m2
14:12 58.5 °F 47.1 °F 29.3 in WNW 24.8 mph 31.7 mph 66 % 0 in open2300-1.11 W/m2
15:12 59.5 °F 46.6 °F 29.3 in WNW 25.3 mph 25.3 mph 62 % 0 in open2300-1.11 W/m2
16:12 61 °F 45.1 °F 29.3 in NNW 5.5 mph 8.2 mph 56 % 0 in open2300-1.11 W/m2
17:12 60.4 °F 45.1 °F 29.4 in North 2.9 mph 13.7 mph 57 % 0 in open2300-1.11 W/m2
18:12 59.2 °F 42.4 °F 29.4 in Calm   3.2 mph 54 % 0 in open2300-1.11 W/m2
19:12 55.9 °F 43.5 °F 29.4 in WNW 7.2 mph 7.2 mph 63 % 0 in open2300-1.11 W/m2
20:12 54 °F 44.1 °F 29.4 in WNW 6.4 mph 6.4 mph 69 % 0 in open2300-1.11 W/m2
21:12 52.2 °F 42.8 °F 29.5 in NW 4.3 mph 4.3 mph 70 % 0 in open2300-1.11 W/m2
22:12 51.6 °F 43 °F 29.5 in Calm     72 % 0 in open2300-1.11 W/m2
23:12 50.5 °F 41.9 °F 29.5 in Calm   2.1 mph 72 % 0 in open2300-1.11 W/m2
Observations météo à CASSIS
WU-History script by Weather Underground - 1 mb